Time;durP1;ratioP1;P1;durP2;ratioP2;P2;SDS_P1;SDS_P2;PMS_P1;PMS_P2;Temp;Humidity;BMP_temperature;BMP_pressure;BME280_temperature;BME280_humidity;BME280_pressure;Samples;Min_cycle;Max_cycle;Signal;HPM_P1;HPM_P2
2021/10/04 00:01:59;;;;;;;5.27;3.23;;;11.90;88.30;;;;;;5073827;28;20176;-90
2021/10/04 00:04:25;;;;;;;7.43;4.17;;;12.00;88.20;;;;;;5073828;28;20193;-90
2021/10/04 00:06:51;;;;;;;6.33;3.70;;;11.90;88.20;;;;;;5073918;28;20176;-90
2021/10/04 00:09:16;;;;;;;4.80;3.80;;;11.90;88.50;;;;;;5072778;28;20202;-91
2021/10/04 00:11:42;;;;;;;6.17;3.00;;;11.90;88.40;;;;;;5072388;28;20210;-91
2021/10/04 00:14:08;;;;;;;8.17;4.03;;;11.90;88.50;;;;;;5073711;28;20167;-90
2021/10/04 00:16:34;;;;;;;7.57;3.53;;;11.90;88.40;;;;;;5072354;28;20632;-90
2021/10/04 00:19:00;;;;;;;5.67;3.87;;;11.80;88.50;;;;;;5072291;28;20659;-90
2021/10/04 00:21:25;;;;;;;4.20;3.80;;;11.90;88.40;;;;;;5073795;28;20225;-90
2021/10/04 00:23:51;;;;;;;10.80;4.10;;;11.80;88.40;;;;;;5072761;28;20258;-91
2021/10/04 00:26:17;;;;;;;5.67;4.40;;;11.80;88.60;;;;;;5072542;28;20179;-91
2021/10/04 00:28:42;;;;;;;7.53;4.30;;;11.80;88.70;;;;;;5072180;28;20207;-91
2021/10/04 00:31:08;;;;;;;5.67;5.07;;;11.80;88.70;;;;;;5072478;28;20172;-91
2021/10/04 00:33:34;;;;;;;7.50;4.60;;;11.70;89.00;;;;;;5073452;28;20170;-90
2021/10/04 00:36:00;;;;;;;7.03;5.03;;;11.70;89.10;;;;;;5072324;28;20203;-90
2021/10/04 00:38:25;;;;;;;5.97;4.27;;;11.70;89.10;;;;;;5073129;28;20241;-90
2021/10/04 00:40:51;;;;;;;7.67;5.10;;;11.70;89.30;;;;;;5072098;28;20198;-90
2021/10/04 00:43:17;;;;;;;7.00;5.07;;;11.60;89.50;;;;;;5073626;28;20237;-90
2021/10/04 00:45:43;;;;;;;8.30;4.37;;;11.50;89.60;;;;;;5073177;28;20265;-90
2021/10/04 00:48:09;;;;;;;8.43;5.27;;;11.40;89.90;;;;;;5071925;28;20282;-90
2021/10/04 00:50:34;;;;;;;7.73;5.20;;;11.50;89.90;;;;;;5072047;28;20296;-90
2021/10/04 00:53:00;;;;;;;9.03;4.60;;;11.40;90.00;;;;;;5073121;28;20571;-90
2021/10/04 00:55:26;;;;;;;8.50;5.13;;;11.30;90.20;;;;;;5072289;28;20515;-90
2021/10/04 00:57:54;;;;;;;7.50;5.10;;;11.30;90.20;;;;;;5071881;28;20191;-91
2021/10/04 01:00:23;;;;;;;11.03;5.47;;;11.30;90.40;;;;;;5073392;28;20312;-90
2021/10/04 01:02:49;;;;;;;7.50;5.70;;;11.20;90.40;;;;;;5072692;28;20175;-91
2021/10/04 01:05:15;;;;;;;7.07;5.20;;;11.30;90.40;;;;;;5071992;28;20270;-90
2021/10/04 01:07:42;;;;;;;7.63;5.17;;;11.30;90.30;;;;;;5072997;28;20179;-90
2021/10/04 01:10:09;;;;;;;6.00;5.13;;;11.20;90.40;;;;;;5072812;28;20627;-90
2021/10/04 01:12:39;;;;;;;8.87;5.87;;;11.20;90.40;;;;;;5072932;28;20190;-90
2021/10/04 01:15:05;;;;;;;6.37;4.70;;;11.20;90.40;;;;;;5071858;28;20168;-91
2021/10/04 01:17:31;;;;;;;9.67;5.67;;;11.20;90.40;;;;;;5072494;28;20175;-90
2021/10/04 01:19:57;;;;;;;7.77;4.60;;;11.20;90.40;;;;;;5071747;28;20547;-91
2021/10/04 01:22:23;;;;;;;8.93;5.20;;;11.20;90.40;;;;;;5071706;28;20175;-90
2021/10/04 01:24:49;;;;;;;9.53;5.03;;;11.20;90.40;;;;;;5071976;28;20209;-91
2021/10/04 01:27:14;;;;;;;6.37;4.43;;;11.20;90.20;;;;;;5071629;28;20210;-90
2021/10/04 01:29:40;;;;;;;9.73;4.97;;;11.20;90.30;;;;;;5071962;28;20597;-90
2021/10/04 01:32:07;;;;;;;11.93;5.53;;;11.20;90.30;;;;;;5071522;28;20195;-91
2021/10/04 01:34:33;;;;;;;6.97;5.10;;;11.20;90.40;;;;;;5071830;28;20172;-90
2021/10/04 01:36:58;;;;;;;8.27;5.40;;;11.10;90.40;;;;;;5071573;28;20346;-90
2021/10/04 01:39:24;;;;;;;6.20;3.30;;;11.20;90.30;;;;;;5072762;28;20742;-90
2021/10/04 01:41:50;;;;;;;5.27;4.20;;;11.20;90.20;;;;;;5071798;28;20194;-90
2021/10/04 01:44:15;;;;;;;5.80;4.50;;;11.20;90.10;;;;;;5071572;28;20273;-90
2021/10/04 01:46:41;;;;;;;6.70;4.67;;;11.20;90.00;;;;;;5071515;28;20175;-90
2021/10/04 01:49:07;;;;;;;8.00;4.53;;;11.20;90.10;;;;;;5075061;28;20557;-90
2021/10/04 01:51:33;;;;;;;8.07;5.10;;;11.10;90.20;;;;;;5076265;28;20199;-90
2021/10/04 01:53:59;;;;;;;11.07;6.00;;;11.10;90.20;;;;;;5075070;28;20643;-90
2021/10/04 01:56:24;;;;;;;6.73;4.70;;;11.10;90.10;;;;;;5075032;28;20556;-90
2021/10/04 01:58:50;;;;;;;11.63;4.60;;;11.10;90.00;;;;;;5076372;28;20703;-90
2021/10/04 02:01:16;;;;;;;9.80;4.73;;;11.20;90.00;;;;;;5074884;28;20225;-90
2021/10/04 02:03:41;;;;;;;5.43;4.40;;;11.20;90.00;;;;;;5074843;28;20179;-90
2021/10/04 02:06:07;;;;;;;8.40;5.73;;;11.20;89.90;;;;;;5076021;28;20175;-90
2021/10/04 02:08:33;;;;;;;5.73;4.50;;;11.10;90.10;;;;;;5074650;28;20203;-90
2021/10/04 02:10:59;;;;;;;8.47;4.57;;;11.10;90.20;;;;;;5074672;28;20172;-90
2021/10/04 02:13:24;;;;;;;6.90;4.60;;;11.10;90.20;;;;;;5075958;28;20178;-90
2021/10/04 02:15:51;;;;;;;11.93;4.97;;;11.10;90.30;;;;;;5074899;28;20270;-90
2021/10/04 02:18:17;;;;;;;7.17;5.17;;;11.20;90.30;;;;;;5074755;28;20663;-90
2021/10/04 02:20:43;;;;;;;12.60;5.93;;;11.10;90.20;;;;;;5076022;28;20171;-90
2021/10/04 02:23:11;;;;;;;7.70;4.30;;;11.10;90.20;;;;;;5074523;28;20171;-90
2021/10/04 02:25:47;;;;;;;7.00;4.60;;;11.20;90.20;;;;;;5074491;28;20176;-90
2021/10/04 02:28:16;;;;;;;9.67;4.50;;;11.10;90.20;;;;;;5074349;28;20202;-90
2021/10/04 02:30:42;;;;;;;5.07;4.57;;;11.20;90.10;;;;;;5074358;28;20207;-90
2021/10/04 02:33:08;;;;;;;8.97;4.43;;;11.20;90.00;;;;;;5074276;28;20219;-90
2021/10/04 02:35:34;;;;;;;6.87;4.63;;;11.20;90.00;;;;;;5074397;28;20197;-90
2021/10/04 02:38:00;;;;;;;5.20;4.37;;;11.20;89.80;;;;;;5074275;28;20690;-90
2021/10/04 02:40:26;;;;;;;7.93;4.23;;;11.20;89.70;;;;;;5075012;28;20531;-90
2021/10/04 02:42:53;;;;;;;8.13;4.50;;;11.20;89.70;;;;;;5074155;28;20275;-90
2021/10/04 02:45:21;;;;;;;9.03;4.27;;;11.20;89.70;;;;;;5074120;28;20229;-90
2021/10/04 02:47:49;;;;;;;6.47;4.33;;;11.20;89.60;;;;;;5074001;28;20179;-90
2021/10/04 02:50:17;;;;;;;8.23;3.60;;;11.20;89.40;;;;;;5075241;28;20183;-90
2021/10/04 02:52:43;;;;;;;8.00;3.93;;;11.30;89.30;;;;;;5074544;28;20207;-90
2021/10/04 02:55:09;;;;;;;9.07;4.30;;;11.30;89.30;;;;;;5074266;28;20172;-91
2021/10/04 02:57:35;;;;;;;9.60;4.47;;;11.20;89.20;;;;;;5073912;28;20171;-90
2021/10/04 03:00:01;;;;;;;7.90;3.97;;;11.20;89.20;;;;;;5073039;28;20593;-90
2021/10/04 03:02:28;;;;;;;5.07;3.60;;;11.30;88.90;;;;;;5073847;28;20203;-90
2021/10/04 03:04:53;;;;;;;10.47;3.60;;;11.20;88.90;;;;;;5073719;28;20278;-90
2021/10/04 03:07:19;;;;;;;8.20;4.30;;;11.20;89.10;;;;;;5073641;28;20179;-90
2021/10/04 03:09:45;;;;;;;7.73;4.10;;;11.20;88.90;;;;;;5073549;28;20199;-90
2021/10/04 03:12:11;;;;;;;6.57;4.10;;;11.20;88.90;;;;;;5073561;28;20200;-91
2021/10/04 03:14:36;;;;;;;7.53;4.37;;;11.20;88.90;;;;;;5074081;28;20183;-91
2021/10/04 03:17:03;;;;;;;12.23;4.93;;;11.20;88.80;;;;;;5074721;28;20179;-90
2021/10/04 03:19:29;;;;;;;9.17;5.40;;;11.10;89.10;;;;;;5073786;28;20197;-90
2021/10/04 03:21:55;;;;;;;9.10;4.80;;;11.10;88.90;;;;;;5074621;28;20175;-90
2021/10/04 03:24:21;;;;;;;10.10;5.47;;;11.10;89.00;;;;;;5073340;28;20232;-90
2021/10/04 03:26:47;;;;;;;12.03;5.43;;;11.20;89.00;;;;;;5073703;28;20555;-90
2021/10/04 03:29:16;;;;;;;10.37;5.93;;;11.20;88.90;;;;;;5073184;28;20282;-90
2021/10/04 03:31:42;;;;;;;9.80;5.70;;;11.10;89.20;;;;;;5073029;28;20214;-90
2021/10/04 03:34:09;;;;;;;9.73;5.97;;;11.10;89.10;;;;;;5074307;28;20176;-90
2021/10/04 03:36:34;;;;;;;11.37;5.90;;;11.10;89.20;;;;;;5073067;28;20183;-91
2021/10/04 03:39:01;;;;;;;10.70;6.57;;;11.10;89.20;;;;;;5073027;28;20198;-91
2021/10/04 03:41:26;;;;;;;10.57;5.60;;;11.10;89.20;;;;;;5073072;28;20186;-91
2021/10/04 03:43:52;;;;;;;10.70;6.03;;;11.10;89.10;;;;;;5073002;28;20615;-90
2021/10/04 03:46:18;;;;;;;9.93;6.20;;;11.10;89.30;;;;;;5072831;28;20191;-90
2021/10/04 03:48:44;;;;;;;12.83;6.57;;;11.10;89.30;;;;;;5072835;28;20551;-91
2021/10/04 03:51:09;;;;;;;12.87;6.70;;;11.10;89.20;;;;;;5072696;28;20235;-90
2021/10/04 03:53:35;;;;;;;12.87;6.27;;;11.20;89.20;;;;;;5072806;28;20180;-90
2021/10/04 03:56:01;;;;;;;12.17;6.83;;;11.10;89.20;;;;;;5073009;28;20224;-90
2021/10/04 03:58:26;;;;;;;12.20;6.90;;;11.10;89.30;;;;;;5072763;28;20211;-91
2021/10/04 04:00:52;;;;;;;12.60;6.93;;;11.20;89.20;;;;;;5073827;28;20176;-91
2021/10/04 04:03:18;;;;;;;13.13;6.70;;;11.20;88.90;;;;;;5072541;28;20182;-90
2021/10/04 04:05:43;;;;;;;12.30;7.43;;;11.10;89.00;;;;;;5073786;28;20523;-90
2021/10/04 04:08:09;;;;;;;16.57;6.80;;;11.10;88.90;;;;;;5072473;28;20281;-90
2021/10/04 04:10:35;;;;;;;15.43;7.00;;;11.10;89.00;;;;;;5072199;28;20206;-91
2021/10/04 04:13:01;;;;;;;12.83;6.37;;;11.00;89.20;;;;;;5072373;28;20233;-90
2021/10/04 04:15:26;;;;;;;11.83;7.07;;;11.00;89.20;;;;;;5072403;28;20659;-90
2021/10/04 04:17:52;;;;;;;14.20;8.07;;;11.00;89.10;;;;;;5073087;28;20249;-90
2021/10/04 04:20:18;;;;;;;13.73;7.90;;;11.00;89.20;;;;;;5072404;28;20642;-91
2021/10/04 04:22:44;;;;;;;12.80;8.20;;;10.90;89.30;;;;;;5072310;28;20237;-91
2021/10/04 04:25:11;;;;;;;11.87;7.97;;;10.90;89.40;;;;;;5072334;28;20233;-91
2021/10/04 04:27:37;;;;;;;11.37;8.50;;;10.90;89.40;;;;;;5072513;28;20179;-90
2021/10/04 04:30:07;;;;;;;17.93;9.13;;;10.80;89.50;;;;;;5072196;28;20187;-91
2021/10/04 04:32:33;;;;;;;19.33;9.37;;;10.90;89.50;;;;;;5072151;28;20286;-90
2021/10/04 04:35:04;;;;;;;13.53;9.63;;;10.80;89.60;;;;;;5072471;28;20643;-90
2021/10/04 04:37:31;;;;;;;13.80;9.17;;;10.90;89.60;;;;;;5073155;28;20167;-90
2021/10/04 04:39:57;;;;;;;19.97;10.30;;;11.00;89.30;;;;;;5072257;28;20172;-91
2021/10/04 04:42:22;;;;;;;15.33;9.33;;;11.00;89.20;;;;;;5073361;28;20184;-90
2021/10/04 04:44:48;;;;;;;11.00;9.03;;;11.00;89.10;;;;;;5072164;28;20213;-90
2021/10/04 04:47:14;;;;;;;13.73;9.10;;;10.90;89.30;;;;;;5072056;28;20269;-90
2021/10/04 04:49:39;;;;;;;15.53;8.83;;;11.00;89.30;;;;;;5072027;28;20640;-90
2021/10/04 04:52:05;;;;;;;15.80;9.10;;;10.90;89.30;;;;;;5071962;28;20213;-90
2021/10/04 04:54:31;;;;;;;17.20;8.70;;;10.90;89.30;;;;;;5073447;28;20181;-91
2021/10/04 04:56:59;;;;;;;14.63;8.13;;;10.90;89.40;;;;;;5071985;28;20270;-90
2021/10/04 04:59:25;;;;;;;18.57;9.43;;;11.00;89.20;;;;;;5071878;28;20273;-91
2021/10/04 05:01:51;;;;;;;15.97;8.90;;;11.00;89.20;;;;;;5073182;28;20591;-91
2021/10/04 05:04:17;;;;;;;15.00;9.23;;;11.00;89.40;;;;;;5071843;28;20175;-91
2021/10/04 05:06:43;;;;;;;13.90;8.80;;;11.00;89.40;;;;;;5071987;28;20183;-90
2021/10/04 05:09:08;;;;;;;21.53;9.57;;;10.90;89.50;;;;;;5072031;28;20248;-90
2021/10/04 05:11:34;;;;;;;13.50;9.20;;;11.00;89.30;;;;;;5072299;28;20202;-90
2021/10/04 05:14:00;;;;;;;15.37;8.77;;;11.00;89.30;;;;;;5071794;28;20179;-90
2021/10/04 05:16:25;;;;;;;15.30;9.00;;;11.00;89.30;;;;;;5072732;28;20172;-91
2021/10/04 05:18:51;;;;;;;13.00;8.53;;;11.00;89.10;;;;;;5071896;28;20191;-90
2021/10/04 05:21:17;;;;;;;20.00;8.77;;;11.10;89.00;;;;;;5071811;28;20179;-90
2021/10/04 05:23:42;;;;;;;12.77;8.33;;;11.10;89.10;;;;;;5074868;28;20176;-90
2021/10/04 05:26:08;;;;;;;11.77;8.33;;;11.00;89.10;;;;;;5075954;28;20186;-90
2021/10/04 05:28:34;;;;;;;18.30;9.27;;;11.10;89.00;;;;;;5075823;28;20195;-91
2021/10/04 05:31:00;;;;;;;11.53;8.03;;;11.00;89.10;;;;;;5075434;28;20631;-90
2021/10/04 05:33:25;;;;;;;13.70;9.00;;;11.10;89.00;;;;;;5075415;28;20214;-90
2021/10/04 05:35:51;;;;;;;13.87;8.07;;;11.10;88.90;;;;;;5075433;28;20179;-91
2021/10/04 05:38:17;;;;;;;10.00;7.30;;;11.10;88.80;;;;;;5075341;28;20195;-90
2021/10/04 05:40:43;;;;;;;13.50;8.20;;;11.10;88.90;;;;;;5075298;28;20544;-90
2021/10/04 05:43:09;;;;;;;14.60;8.20;;;11.10;88.90;;;;;;5076580;28;20168;-90
2021/10/04 05:45:34;;;;;;;14.80;7.73;;;11.10;88.90;;;;;;5075718;28;20183;-90
2021/10/04 05:48:00;;;;;;;11.50;7.53;;;11.00;89.00;;;;;;5075143;28;20195;-90
2021/10/04 05:50:26;;;;;;;13.37;7.13;;;11.10;88.90;;;;;;5076379;28;20182;-89
2021/10/04 05:52:52;;;;;;;11.20;7.03;;;11.10;88.90;;;;;;5074984;28;20211;-89
2021/10/04 05:55:18;;;;;;;12.10;7.07;;;11.10;88.70;;;;;;5075027;28;20183;-90
2021/10/04 05:57:44;;;;;;;10.93;6.93;;;11.10;88.70;;;;;;5074991;28;20631;-91
2021/10/04 06:00:11;;;;;;;13.67;7.40;;;11.00;89.00;;;;;;5075483;28;20236;-90
2021/10/04 06:02:37;;;;;;;9.53;6.83;;;10.90;88.90;;;;;;5075146;28;20186;-90
2021/10/04 06:05:05;;;;;;;9.57;6.70;;;11.00;88.90;;;;;;5076078;28;20179;-90
2021/10/04 06:07:31;;;;;;;12.33;7.33;;;11.00;88.80;;;;;;5075482;28;20554;-90
2021/10/04 06:09:56;;;;;;;11.67;6.70;;;10.90;88.80;;;;;;5075917;28;20277;-91
2021/10/04 06:12:26;;;;;;;11.43;6.80;;;11.00;88.90;;;;;;5074555;28;20207;-91
2021/10/04 06:14:57;;;;;;;12.60;6.90;;;10.90;89.10;;;;;;5075703;28;20674;-90
2021/10/04 06:17:23;;;;;;;11.57;6.30;;;10.90;89.10;;;;;;5075631;28;20179;-90
2021/10/04 06:19:49;;;;;;;11.97;7.17;;;10.80;89.20;;;;;;5074879;28;20199;-90
2021/10/04 06:22:15;;;;;;;9.77;6.23;;;10.90;89.20;;;;;;5074560;28;20635;-90
2021/10/04 06:24:41;;;;;;;8.20;6.33;;;10.90;89.40;;;;;;5074500;28;20175;-90
2021/10/04 06:27:07;;;;;;;10.03;7.00;;;10.90;89.40;;;;;;5074735;28;20183;-90
2021/10/04 06:29:33;;;;;;;22.20;6.73;;;10.90;89.30;;;;;;5075561;28;20224;-90
2021/10/04 06:31:58;;;;;;;12.93;5.97;;;11.00;89.30;;;;;;5074360;28;20203;-91
2021/10/04 06:34:24;;;;;;;12.07;6.43;;;11.00;89.10;;;;;;5074092;28;20171;-90
2021/10/04 06:36:50;;;;;;;18.40;6.37;;;11.10;89.00;;;;;;5075463;28;20175;-90
2021/10/04 06:39:15;;;;;;;8.73;5.60;;;11.10;89.10;;;;;;5074275;28;20191;-91
2021/10/04 06:41:41;;;;;;;12.50;5.40;;;11.20;88.90;;;;;;5074206;28;20171;-90
2021/10/04 06:44:11;;;;;;;10.60;5.10;;;11.20;88.70;;;;;;5074423;28;20221;-90
2021/10/04 06:46:38;;;;;;;9.17;5.43;;;11.30;88.40;;;;;;5074241;28;20258;-89
2021/10/04 06:49:05;;;;;;;12.37;6.03;;;11.40;88.50;;;;;;5073975;28;20210;-89
2021/10/04 06:51:30;;;;;;;15.03;6.60;;;11.40;88.00;;;;;;5074077;28;20199;-89
2021/10/04 06:53:56;;;;;;;14.23;5.10;;;11.50;87.80;;;;;;5074170;28;20226;-90
2021/10/04 06:56:22;;;;;;;12.53;4.30;;;11.60;87.70;;;;;;5073902;28;20210;-89
2021/10/04 06:58:48;;;;;;;7.57;4.80;;;11.60;87.50;;;;;;5074969;28;20210;-89
2021/10/04 07:01:13;;;;;;;9.67;4.60;;;11.70;87.50;;;;;;5073838;28;20175;-89
2021/10/04 07:03:39;;;;;;;11.43;4.43;;;11.70;87.70;;;;;;5075389;28;20533;-89
2021/10/04 07:06:05;;;;;;;7.83;4.30;;;11.70;87.70;;;;;;5073760;28;20167;-89
2021/10/04 07:08:31;;;;;;;9.10;4.50;;;11.80;87.80;;;;;;5075083;28;20564;-90
2021/10/04 07:10:57;;;;;;;6.93;4.03;;;11.80;87.80;;;;;;5073624;28;20183;-90
2021/10/04 07:13:23;;;;;;;7.90;4.37;;;11.80;87.70;;;;;;5073617;28;20797;-90
2021/10/04 07:15:49;;;;;;;12.33;4.70;;;11.90;87.90;;;;;;5073466;28;20182;-90
2021/10/04 07:18:15;;;;;;;10.73;4.30;;;11.90;88.00;;;;;;5074582;28;20218;-89
2021/10/04 07:20:41;;;;;;;5.70;3.70;;;11.90;87.20;;;;;;5074597;28;20171;-89
2021/10/04 07:23:07;;;;;;;6.43;3.50;;;12.00;87.20;;;;;;5073409;28;20187;-89
2021/10/04 07:25:33;;;;;;;5.40;4.30;;;12.00;87.00;;;;;;5073267;28;20183;-89
2021/10/04 07:28:00;;;;;;;7.27;3.80;;;12.00;87.20;;;;;;5073280;28;20203;-89
2021/10/04 07:30:26;;;;;;;5.80;3.37;;;12.10;87.60;;;;;;5074485;28;20171;-90
2021/10/04 07:32:52;;;;;;;5.17;3.13;;;12.10;86.70;;;;;;5073145;28;20203;-89
2021/10/04 07:35:18;;;;;;;7.90;2.83;;;12.20;87.10;;;;;;5073074;28;20665;-89
2021/10/04 07:37:44;;;;;;;7.63;3.60;;;12.10;86.60;;;;;;5072846;28;20202;-89
2021/10/04 07:40:11;;;;;;;11.83;3.67;;;12.20;86.90;;;;;;5073329;28;20206;-89
2021/10/04 07:42:37;;;;;;;10.20;3.10;;;12.30;86.90;;;;;;5073331;28;20179;-89
2021/10/04 07:45:03;;;;;;;6.10;3.07;;;12.30;86.60;;;;;;5072709;28;20275;-89
2021/10/04 07:47:29;;;;;;;7.60;2.90;;;12.30;86.50;;;;;;5072420;28;20233;-89
2021/10/04 07:49:56;;;;;;;7.03;2.93;;;12.40;86.10;;;;;;5072683;28;20612;-89
2021/10/04 07:52:22;;;;;;;8.10;3.00;;;12.40;86.40;;;;;;5072795;28;20700;-89
2021/10/04 07:54:48;;;;;;;7.10;2.40;;;12.50;86.30;;;;;;5072634;28;20202;-89
2021/10/04 07:57:14;;;;;;;8.37;4.10;;;12.50;86.00;;;;;;5072865;28;20275;-89
2021/10/04 07:59:40;;;;;;;6.33;2.23;;;12.50;85.60;;;;;;5072613;28;20689;-89
2021/10/04 08:02:08;;;;;;;5.63;2.50;;;12.60;85.60;;;;;;5072664;28;20651;-89
2021/10/04 08:04:34;;;;;;;6.67;2.17;;;12.60;85.70;;;;;;5073717;28;20175;-89
2021/10/04 08:07:00;;;;;;;3.97;2.63;;;12.70;85.30;;;;;;5072671;28;20560;-90
2021/10/04 08:09:25;;;;;;;6.43;2.47;;;12.70;85.80;;;;;;5073771;28;20199;-90
2021/10/04 08:11:51;;;;;;;5.10;2.20;;;12.80;85.50;;;;;;5072896;28;20379;-90
2021/10/04 08:14:17;;;;;;;6.37;2.10;;;12.80;85.90;;;;;;5073648;28;20179;-90
2021/10/04 08:16:43;;;;;;;8.17;2.13;;;12.80;85.30;;;;;;5072475;28;20186;-90
2021/10/04 08:19:09;;;;;;;5.63;3.17;;;12.80;85.10;;;;;;5073631;28;20190;-90
2021/10/04 08:21:35;;;;;;;6.97;2.73;;;12.80;84.90;;;;;;5072286;28;20179;-91
2021/10/04 08:24:00;;;;;;;5.00;2.50;;;12.80;85.10;;;;;;5073741;28;20171;-90
2021/10/04 08:26:27;;;;;;;2.93;1.80;;;12.80;85.30;;;;;;5072410;28;20232;-90
2021/10/04 08:28:53;;;;;;;2.33;1.77;;;12.80;84.90;;;;;;5072182;28;20210;-89
2021/10/04 08:31:20;;;;;;;7.03;2.33;;;12.80;85.00;;;;;;5073021;28;20175;-89
2021/10/04 08:33:45;;;;;;;5.80;2.37;;;12.80;85.30;;;;;;5072983;28;20175;-90
2021/10/04 08:36:11;;;;;;;3.77;2.00;;;12.80;85.50;;;;;;5072177;28;20602;-89
2021/10/04 08:38:37;;;;;;;4.80;2.00;;;12.80;85.20;;;;;;5073068;28;20282;-89
2021/10/04 08:41:03;;;;;;;5.83;2.10;;;12.80;85.00;;;;;;5073709;28;20601;-89
2021/10/04 08:43:29;;;;;;;3.97;1.90;;;12.80;84.40;;;;;;5072128;28;20183;-90
2021/10/04 08:45:59;;;;;;;9.07;2.50;;;12.90;84.30;;;;;;5072146;28;20270;-90
2021/10/04 08:48:26;;;;;;;6.47;2.00;;;12.90;84.60;;;;;;5072073;28;20230;-90
2021/10/04 08:50:55;;;;;;;8.03;2.27;;;12.90;83.70;;;;;;5072024;28;20654;-89
2021/10/04 08:53:20;;;;;;;6.83;2.87;;;12.90;84.10;;;;;;5072331;28;20196;-89
2021/10/04 08:55:46;;;;;;;4.77;1.77;;;12.90;84.80;;;;;;5072396;28;20176;-90
2021/10/04 08:58:12;;;;;;;4.50;2.10;;;13.00;84.30;;;;;;5074983;28;20195;-90
2021/10/04 09:00:39;;;;;;;5.63;2.20;;;13.00;84.30;;;;;;5076194;28;20167;-90
2021/10/04 09:03:05;;;;;;;8.70;2.13;;;13.00;84.60;;;;;;5076411;28;20592;-89
2021/10/04 09:05:32;;;;;;;5.43;1.77;;;13.00;84.60;;;;;;5076150;28;20179;-90
2021/10/04 09:08:02;;;;;;;7.83;2.33;;;13.00;84.60;;;;;;5077177;28;20209;-89
2021/10/04 09:10:33;;;;;;;3.93;2.20;;;12.90;84.50;;;;;;5076016;28;20193;-89
2021/10/04 09:13:04;;;;;;;3.90;1.50;;;12.90;84.90;;;;;;5075864;28;20195;-90
2021/10/04 09:15:42;;;;;;;8.73;2.03;;;13.00;83.80;;;;;;5075870;28;20554;-90
2021/10/04 09:18:15;;;;;;;4.10;1.80;;;13.00;84.90;;;;;;5077272;28;20285;-89
2021/10/04 09:20:58;;;;;;;4.37;1.97;;;13.00;84.90;;;;;;5075777;28;20164;-89
2021/10/04 09:23:46;;;;;;;7.27;2.43;;;13.00;84.00;;;;;;5075680;28;20236;-89
2021/10/04 09:26:29;;;;;;;4.33;1.70;;;12.90;84.50;;;;;;5075612;28;20643;-89
2021/10/04 09:29:11;;;;;;;4.70;1.70;;;13.00;84.40;;;;;;5075556;28;20199;-89
2021/10/04 09:31:44;;;;;;;6.67;1.80;;;13.00;84.50;;;;;;5075545;28;20579;-89
2021/10/04 09:34:17;;;;;;;3.77;1.80;;;13.00;84.50;;;;;;5076764;28;20170;-89
2021/10/04 09:36:48;;;;;;;6.73;1.80;;;13.10;84.50;;;;;;5075458;28;20578;-90
2021/10/04 09:39:32;;;;;;;4.30;1.60;;;13.10;84.60;;;;;;5075353;28;20198;-89
2021/10/04 09:42:14;;;;;;;6.07;2.73;;;13.20;83.50;;;;;;5075394;28;20164;-89
2021/10/04 09:44:48;;;;;;;6.27;2.27;;;13.20;83.50;;;;;;5075369;28;20175;-90
2021/10/04 09:47:26;;;;;;;9.77;1.90;;;13.30;83.70;;;;;;5076778;28;20572;-90
2021/10/04 09:49:55;;;;;;;4.30;1.80;;;13.30;83.60;;;;;;5075214;28;20199;-90
2021/10/04 09:52:33;;;;;;;8.60;2.10;;;13.40;83.50;;;;;;5075073;28;20209;-89
2021/10/04 09:54:59;;;;;;;3.97;1.50;;;13.40;83.50;;;;;;5075282;28;20578;-89
2021/10/04 09:57:26;;;;;;;7.37;1.87;;;13.50;82.90;;;;;;5075341;28;20168;-89
2021/10/04 09:59:51;;;;;;;4.97;1.83;;;13.60;83.20;;;;;;5074894;28;20222;-89
2021/10/04 10:02:18;;;;;;;4.00;1.50;;;13.70;83.00;;;;;;5076077;28;20172;-89
2021/10/04 10:04:47;;;;;;;4.70;1.73;;;13.80;82.90;;;;;;5075269;28;20551;-89
2021/10/04 10:07:13;;;;;;;4.40;1.67;;;13.80;82.70;;;;;;5074897;28;20175;-89
2021/10/04 10:09:41;;;;;;;9.03;2.13;;;13.80;82.00;;;;;;5075285;28;20679;-90
2021/10/04 10:12:08;;;;;;;4.13;1.80;;;13.90;82.60;;;;;;5076124;28;20195;-89
2021/10/04 10:14:38;;;;;;;6.37;1.77;;;13.90;82.00;;;;;;5075040;28;20660;-89
2021/10/04 10:17:04;;;;;;;5.20;1.70;;;14.00;82.90;;;;;;5075175;28;20198;-89
2021/10/04 10:19:31;;;;;;;4.13;1.80;;;14.10;82.50;;;;;;5075765;28;20195;-90
2021/10/04 10:22:18;;;;;;;4.83;1.70;;;14.00;82.00;;;;;;5075837;28;20175;-89
2021/10/04 10:24:44;;;;;;;8.67;1.90;;;14.00;81.90;;;;;;5074369;28;20172;-89
2021/10/04 10:27:11;;;;;;;5.07;1.97;;;14.00;81.80;;;;;;5075771;28;20168;-89
2021/10/04 10:29:38;;;;;;;3.77;1.80;;;13.90;80.90;;;;;;5075581;28;20198;-89
2021/10/04 10:32:06;;;;;;;6.70;1.60;;;14.00;82.00;;;;;;5075535;28;20666;-89
2021/10/04 10:34:32;;;;;;;3.57;1.43;;;14.00;81.80;;;;;;5075665;28;20163;-89
2021/10/04 10:37:08;;;;;;;6.83;1.97;;;14.00;81.40;;;;;;5074363;28;20180;-89
2021/10/04 10:39:57;;;;;;;5.77;1.53;;;14.10;81.70;;;;;;5074241;28;20191;-89
2021/10/04 10:42:28;;;;;;;6.60;1.70;;;14.10;81.40;;;;;;5074237;28;20179;-90
2021/10/04 10:44:57;;;;;;;4.97;1.50;;;14.10;82.40;;;;;;5074195;28;20206;-89
2021/10/04 10:47:38;;;;;;;5.23;1.73;;;14.20;82.70;;;;;;5073967;28;20210;-89
2021/10/04 10:50:14;;;;;;;7.70;1.60;;;14.20;81.90;;;;;;5074014;28;20178;-89
2021/10/04 10:52:55;;;;;;;4.37;1.50;;;14.20;81.70;;;;;;5074286;28;20199;-89
2021/10/04 10:55:21;;;;;;;6.37;1.30;;;14.20;81.60;;;;;;5074056;28;20171;-89
2021/10/04 10:57:59;;;;;;;7.00;2.73;;;14.30;81.20;;;;;;5074071;28;20558;-89
2021/10/04 11:00:27;;;;;;;6.10;1.80;;;14.30;81.20;;;;;;5073943;28;20217;-89
2021/10/04 11:03:12;;;;;;;6.77;1.63;;;14.30;81.30;;;;;;5073811;28;20186;-89
2021/10/04 11:05:37;;;;;;;4.13;1.43;;;14.30;81.50;;;;;;5073738;28;20243;-89
2021/10/04 11:08:07;;;;;;;5.60;1.70;;;14.30;81.00;;;;;;5074230;28;20695;-89
2021/10/04 11:10:33;;;;;;;4.77;1.67;;;14.40;81.80;;;;;;5073945;28;20182;-89
2021/10/04 11:13:09;;;;;;;5.10;2.13;;;14.40;80.80;;;;;;5073843;28;20256;-89
2021/10/04 11:15:36;;;;;;;7.83;1.70;;;14.50;81.70;;;;;;5073615;28;20166;-89
2021/10/04 11:18:03;;;;;;;3.77;1.70;;;14.50;80.90;;;;;;5073686;28;20194;-89
2021/10/04 11:20:30;;;;;;;6.67;1.37;;;14.50;80.60;;;;;;5073858;28;20174;-89
2021/10/04 11:23:10;;;;;;;4.03;1.60;;;14.50;81.30;;;;;;5073544;28;20175;-89
2021/10/04 11:25:43;;;;;;;5.53;1.50;;;14.60;80.40;;;;;;5073530;28;20171;-89
2021/10/04 11:28:10;;;;;;;5.87;1.67;;;14.70;80.50;;;;;;5074505;28;20689;-90
2021/10/04 11:31:03;;;;;;;4.40;1.23;;;14.60;79.80;;;;;;5073402;28;20171;-89
2021/10/04 11:33:31;;;;;;;7.77;1.60;;;14.60;79.70;;;;;;5074523;28;20283;-89
2021/10/04 11:36:01;;;;;;;5.17;1.57;;;14.60;80.00;;;;;;5073093;28;20175;-89
2021/10/04 11:38:29;;;;;;;5.63;1.73;;;14.70;79.80;;;;;;5073048;28;20188;-89
2021/10/04 11:40:55;;;;;;;4.50;1.40;;;14.70;78.90;;;;;;5074680;28;20172;-89
2021/10/04 11:43:21;;;;;;;5.30;1.50;;;14.60;78.60;;;;;;5073347;28;20639;-89
2021/10/04 11:45:48;;;;;;;4.00;1.20;;;14.60;79.20;;;;;;5074546;28;20168;-89
2021/10/04 11:48:31;;;;;;;7.23;1.43;;;14.70;79.50;;;;;;5072919;28;20190;-90
2021/10/04 11:50:57;;;;;;;5.10;1.40;;;14.80;80.30;;;;;;5073514;28;20180;-90
2021/10/04 11:53:24;;;;;;;5.00;1.50;;;14.80;79.00;;;;;;5073946;28;20209;-90
2021/10/04 11:56:04;;;;;;;4.17;1.57;;;15.00;79.60;;;;;;5073213;28;20666;-90
2021/10/04 11:58:30;;;;;;;4.00;1.33;;;15.00;79.20;;;;;;5074342;28;20575;-89
2021/10/04 12:00:56;;;;;;;5.43;1.40;;;14.90;78.90;;;;;;5072763;28;20666;-90
2021/10/04 12:03:32;;;;;;;3.23;1.53;;;15.00;78.20;;;;;;5072965;28;20171;-90
2021/10/04 12:05:59;;;;;;;2.77;1.00;;;14.90;78.30;;;;;;5072717;28;20187;-88
2021/10/04 12:08:34;;;;;;;7.17;1.30;;;15.00;78.90;;;;;;5072518;28;20268;-90
2021/10/04 12:11:01;;;;;;;3.73;1.27;;;15.10;79.10;;;;;;5074290;28;20204;-89
2021/10/04 12:13:34;;;;;;;6.67;1.83;;;15.20;77.50;;;;;;5073884;28;20199;-89
2021/10/04 12:16:09;;;;;;;4.43;1.20;;;15.30;77.30;;;;;;5074133;28;20163;-88
2021/10/04 12:19:01;;;;;;;4.17;1.70;;;15.70;77.60;;;;;;5072878;28;20191;-88
2021/10/04 12:21:41;;;;;;;3.05;1.55;;;16.00;77.60;;;;;;5072920;28;20191;-88
2021/10/04 12:24:18;;;;;;;2.70;1.13;;;16.20;75.90;;;;;;5074267;28;20160;-88
2021/10/04 12:27:13;;;;;;;7.30;1.67;;;16.30;75.40;;;;;;5072520;28;20166;-89
2021/10/04 12:29:57;;;;;;;3.88;1.20;;;16.30;75.00;;;;;;5072795;28;20199;-91
2021/10/04 12:32:37;;;;;;;8.32;0.88;;;16.30;75.00;;;;;;5073560;28;20191;-91
2021/10/04 12:35:19;;;;;;;3.20;1.25;;;16.00;74.20;;;;;;5072754;28;20677;-91
2021/10/04 12:37:55;;;;;;;8.30;1.95;;;16.00;74.40;;;;;;5072292;28;20167;-91
2021/10/04 12:40:48;;;;;;;4.00;1.52;;;16.50;74.70;;;;;;5072444;28;20163;-92
2021/10/04 12:43:23;;;;;;;3.80;1.40;;;16.40;74.20;;;;;;5069967;28;20191;-91
2021/10/04 12:46:01;;;;;;;3.35;1.20;;;16.30;73.30;;;;;;5072382;28;20174;-91
2021/10/04 12:48:29;;;;;;;1.48;0.75;;;16.60;71.60;;;;;;5073071;28;20191;-91